createdAt,value
2022-08-25T00:00:17.496Z,3.47
2022-08-25T00:02:56.482Z,3.40
2022-08-25T00:05:18.939Z,4.00
2022-08-25T00:07:48.931Z,4.57
2022-08-25T00:10:18.768Z,3.30
2022-08-25T00:12:48.612Z,5.73
2022-08-25T00:15:18.146Z,6.43
2022-08-25T00:17:47.915Z,3.73
2022-08-25T00:20:18.315Z,3.05
2022-08-25T00:22:49.253Z,3.47
2022-08-25T00:25:19.749Z,4.43
2022-08-25T00:27:50.513Z,6.03
2022-08-25T00:30:21.777Z,4.17
2022-08-25T00:32:57.238Z,4.67
2022-08-25T00:35:23.454Z,3.98
2022-08-25T00:37:53.299Z,4.77
2022-08-25T00:40:25.147Z,3.33
2022-08-25T00:42:55.923Z,3.20
2022-08-25T00:45:25.662Z,6.20
2022-08-25T00:47:56.694Z,3.55
2022-08-25T00:50:28.214Z,2.92
2022-08-25T00:53:01.338Z,5.40
2022-08-25T00:55:41.616Z,3.05
2022-08-25T00:58:16.971Z,4.28
2022-08-25T01:00:49.781Z,4.13
2022-08-25T01:03:20.758Z,4.60
2022-08-25T01:05:53.648Z,5.30
2022-08-25T01:08:27.443Z,7.33
2022-08-25T01:11:01.588Z,5.77
2022-08-25T01:13:34.748Z,3.97
2022-08-25T01:16:05.362Z,4.80
2022-08-25T01:18:53.028Z,5.23
2022-08-25T01:21:24.251Z,6.70
2022-08-25T01:23:55.339Z,4.70
2022-08-25T01:26:30.659Z,13.25
2022-08-25T01:29:18.923Z,3.20
2022-08-25T01:31:50.744Z,4.80
2022-08-25T01:34:21.317Z,4.87
2022-08-25T01:36:51.225Z,3.97
2022-08-25T01:39:21.049Z,3.37
2022-08-25T01:41:56.643Z,4.90
2022-08-25T01:44:27.104Z,4.23
2022-08-25T01:46:56.868Z,5.23
2022-08-25T01:49:26.805Z,7.17
2022-08-25T01:52:17.960Z,4.78
2022-08-25T01:54:47.732Z,5.30
2022-08-25T01:57:17.833Z,4.00
2022-08-25T01:59:47.901Z,4.40
2022-08-25T02:02:18.310Z,5.37
2022-08-25T02:04:48.569Z,3.57
2022-08-25T02:07:20.194Z,3.50
2022-08-25T02:09:49.676Z,5.40
2022-08-25T02:12:20.033Z,5.47
2022-08-25T02:14:49.851Z,5.40
2022-08-25T02:17:19.621Z,4.77
2022-08-25T02:19:49.657Z,5.63
2022-08-25T02:22:19.509Z,6.20
2022-08-25T02:24:49.278Z,5.23
2022-08-25T02:27:19.410Z,3.30
2022-08-25T02:29:49.161Z,7.57
2022-08-25T02:32:18.945Z,6.63
2022-08-25T02:34:48.496Z,3.10
2022-08-25T02:37:18.342Z,6.47
2022-08-25T02:39:48.209Z,5.73
2022-08-25T02:42:17.731Z,4.67
2022-08-25T02:44:48.076Z,6.03
2022-08-25T02:47:17.911Z,3.97
2022-08-25T02:49:49.848Z,5.62
2022-08-25T02:52:20.258Z,4.47
2022-08-25T02:54:50.104Z,3.23
2022-08-25T02:57:20.155Z,3.65
2022-08-25T02:59:51.454Z,4.90
2022-08-25T03:02:21.242Z,6.00
2022-08-25T03:04:52.129Z,5.63
2022-08-25T03:07:23.531Z,7.27
2022-08-25T03:09:54.474Z,8.60
2022-08-25T03:12:23.952Z,6.87
2022-08-25T03:14:54.477Z,4.20
2022-08-25T03:17:24.333Z,4.80
2022-08-25T03:19:54.105Z,7.50
2022-08-25T03:22:23.868Z,8.00
2022-08-25T03:24:55.350Z,7.10
2022-08-25T03:27:24.867Z,8.30
2022-08-25T03:29:56.355Z,5.37
2022-08-25T03:32:26.113Z,4.57
2022-08-25T03:34:55.881Z,5.10
2022-08-25T03:37:25.650Z,4.07
2022-08-25T03:39:55.458Z,3.17
2022-08-25T03:42:26.375Z,5.17
2022-08-25T03:44:56.140Z,7.27
2022-08-25T03:47:28.392Z,8.37
2022-08-25T03:49:58.237Z,4.70
2022-08-25T03:52:28.080Z,5.40
2022-08-25T03:54:57.927Z,6.70
2022-08-25T03:57:27.754Z,6.77
2022-08-25T03:59:57.710Z,6.43
2022-08-25T04:02:27.555Z,6.33
2022-08-25T04:04:57.313Z,5.50
2022-08-25T04:07:27.085Z,7.13
2022-08-25T04:09:56.928Z,4.30
2022-08-25T04:12:27.038Z,4.47
2022-08-25T04:14:56.878Z,5.83
2022-08-25T04:17:26.634Z,3.07
2022-08-25T04:19:57.232Z,7.30
2022-08-25T04:22:27.002Z,5.20
2022-08-25T04:25:00.118Z,5.73
2022-08-25T04:27:29.878Z,5.20
2022-08-25T04:29:59.943Z,6.12
2022-08-25T04:32:29.705Z,2.95
2022-08-25T04:34:59.905Z,3.40
2022-08-25T04:37:29.668Z,4.03
2022-08-25T04:39:59.599Z,6.63
2022-08-25T04:42:29.755Z,4.67
2022-08-25T04:45:01.159Z,9.47
2022-08-25T04:47:31.200Z,5.00
2022-08-25T04:50:00.972Z,3.97
2022-08-25T04:52:31.002Z,4.62
2022-08-25T04:55:01.017Z,4.97
2022-08-25T04:57:30.486Z,4.50
2022-08-25T05:00:00.258Z,5.30
2022-08-25T05:02:30.036Z,7.17
2022-08-25T05:05:01.283Z,5.03
2022-08-25T05:07:31.288Z,4.20
2022-08-25T05:10:01.051Z,5.47
2022-08-25T05:15:02.133Z,5.30
2022-08-25T05:17:31.971Z,5.17
2022-08-25T05:20:01.743Z,3.67
2022-08-25T05:22:31.509Z,4.37
2022-08-25T05:25:01.284Z,4.20
2022-08-25T05:30:02.520Z,5.13
2022-08-25T05:32:32.288Z,3.47
2022-08-25T05:35:02.048Z,4.03
2022-08-25T05:37:31.816Z,3.73
2022-08-25T05:40:01.698Z,3.77
2022-08-25T05:42:31.530Z,6.12
2022-08-25T05:45:01.360Z,3.73
2022-08-25T05:47:31.123Z,3.40
2022-08-25T05:50:01.355Z,6.47
2022-08-25T05:52:30.937Z,5.87
2022-08-25T05:55:01.002Z,7.60
2022-08-25T05:57:30.775Z,3.77
2022-08-25T06:00:00.548Z,8.73
2022-08-25T06:02:43.797Z,4.08
2022-08-25T06:05:17.384Z,3.58
2022-08-25T06:07:48.398Z,4.07
2022-08-25T06:10:20.191Z,7.53
2022-08-25T06:12:50.361Z,4.20
2022-08-25T06:15:22.863Z,5.12
2022-08-25T06:17:56.730Z,5.90
2022-08-25T06:20:27.616Z,5.80
2022-08-25T06:22:58.521Z,3.17
2022-08-25T06:25:30.363Z,8.17
2022-08-25T06:28:00.495Z,3.90
2022-08-25T06:30:30.311Z,5.20
2022-08-25T06:33:00.116Z,6.87
2022-08-25T06:35:29.892Z,4.83
2022-08-25T06:37:59.679Z,5.67
2022-08-25T06:40:29.476Z,9.23
2022-08-25T06:42:59.273Z,15.70
2022-08-25T06:45:29.047Z,6.30
2022-08-25T06:48:00.086Z,5.43
2022-08-25T06:50:29.861Z,15.03
2022-08-25T06:52:59.631Z,7.23
2022-08-25T06:55:29.403Z,5.93
2022-08-25T06:57:59.223Z,6.13
2022-08-25T07:00:30.669Z,5.12
2022-08-25T07:03:01.615Z,6.53
2022-08-25T07:05:43.437Z,6.40
2022-08-25T07:08:02.663Z,6.00
2022-08-25T07:10:32.424Z,9.08
2022-08-25T07:13:02.195Z,7.13
2022-08-25T07:15:31.664Z,9.40
2022-08-25T07:18:01.491Z,6.60
2022-08-25T07:20:34.900Z,8.45
2022-08-25T07:23:05.404Z,7.33
2022-08-25T07:25:36.079Z,7.50
2022-08-25T07:28:05.912Z,10.07
2022-08-25T07:30:35.393Z,6.57
2022-08-25T07:33:07.034Z,5.07
2022-08-25T07:35:38.019Z,5.00
2022-08-25T07:38:10.317Z,7.40
2022-08-25T07:40:43.000Z,4.15
2022-08-25T07:43:12.991Z,8.77
2022-08-25T07:45:49.229Z,6.17
2022-08-25T07:48:19.015Z,5.48
2022-08-25T07:50:50.217Z,7.07
2022-08-25T07:53:21.756Z,6.60
2022-08-25T07:55:53.679Z,5.03
2022-08-25T07:58:24.125Z,5.00
2022-08-25T08:00:53.893Z,6.27
2022-08-25T08:03:44.797Z,7.17
2022-08-25T08:05:56.504Z,6.35
2022-08-25T08:08:26.317Z,7.42
2022-08-25T08:11:04.925Z,7.67
2022-08-25T08:13:27.789Z,7.10
2022-08-25T08:15:57.942Z,5.58
2022-08-25T08:18:27.674Z,4.90
2022-08-25T08:20:57.442Z,10.03
2022-08-25T08:23:28.392Z,5.10
2022-08-25T08:25:58.145Z,5.73
2022-08-25T08:28:27.995Z,4.70
2022-08-25T08:30:58.036Z,5.07
2022-08-25T08:33:28.855Z,6.87
2022-08-25T08:36:04.852Z,8.30
2022-08-25T08:38:37.012Z,5.67
2022-08-25T08:44:24.869Z,6.92
2022-08-25T08:47:09.045Z,7.05
2022-08-25T08:49:45.195Z,7.25
2022-08-25T08:52:18.209Z,8.97
2022-08-25T08:54:51.782Z,6.40
2022-08-25T08:57:25.459Z,6.50
2022-08-25T09:00:01.019Z,7.60
2022-08-25T09:02:39.149Z,5.87
2022-08-25T09:05:10.834Z,6.57
2022-08-25T09:07:49.429Z,6.23
2022-08-25T09:10:21.279Z,3.45
2022-08-25T09:15:57.539Z,9.03
2022-08-25T09:18:35.060Z,5.05
2022-08-25T09:21:07.848Z,6.50
2022-08-25T09:23:43.233Z,4.25
2022-08-25T09:26:22.161Z,7.25
2022-08-25T09:29:00.139Z,7.40
2022-08-25T09:31:38.911Z,4.40
2022-08-25T09:34:15.770Z,8.03
2022-08-25T09:36:47.255Z,6.12
2022-08-25T09:39:17.945Z,5.03
2022-08-25T09:41:53.835Z,3.77
2022-08-25T09:44:26.850Z,5.03
2022-08-25T09:47:04.759Z,7.43
2022-08-25T09:49:43.357Z,5.67
2022-08-25T09:52:34.420Z,8.43
2022-08-25T09:55:14.800Z,4.53
2022-08-25T09:57:52.816Z,2.72
2022-08-25T10:00:27.878Z,4.40
2022-08-25T10:06:00.111Z,6.95
2022-08-25T10:08:41.857Z,6.78
2022-08-25T10:11:15.145Z,4.50
2022-08-25T10:13:48.208Z,7.42
2022-08-25T10:16:36.228Z,6.10
2022-08-25T10:19:11.896Z,6.73
2022-08-25T10:21:44.162Z,6.87
2022-08-25T10:24:15.883Z,4.70
2022-08-25T10:26:57.685Z,3.90
2022-08-25T10:29:30.868Z,5.40
2022-08-25T10:32:22.883Z,3.63
2022-08-25T10:34:59.103Z,3.37
2022-08-25T10:40:25.897Z,4.42
2022-08-25T10:43:08.431Z,2.40
2022-08-25T10:45:47.771Z,4.17
2022-08-25T10:48:38.420Z,3.70
2022-08-25T10:51:35.165Z,2.65
2022-08-25T10:54:27.075Z,5.67
2022-08-25T10:57:36.132Z,4.73
2022-08-25T11:03:12.431Z,2.67
2022-08-25T11:05:54.419Z,1.97
2022-08-25T11:08:33.707Z,5.40
2022-08-25T11:11:27.061Z,2.10
2022-08-25T11:14:09.273Z,6.73
2022-08-25T11:16:48.475Z,2.70
2022-08-25T11:19:20.948Z,4.83
2022-08-25T11:22:09.838Z,5.73
2022-08-25T11:24:45.513Z,2.80
2022-08-25T11:27:21.668Z,6.43
2022-08-25T11:30:01.655Z,1.97
2022-08-25T11:32:33.418Z,1.98
2022-08-25T11:35:06.752Z,4.63
2022-08-25T11:37:39.936Z,4.47
2022-08-25T11:40:32.477Z,3.16
2022-08-25T11:43:35.512Z,2.73
2022-08-25T11:46:16.892Z,2.57
2022-08-25T11:49:02.077Z,3.27
2022-08-25T11:51:38.094Z,2.70
2022-08-25T11:54:29.606Z,1.72
2022-08-25T11:57:05.111Z,3.60
2022-08-25T11:59:55.687Z,4.47
2022-08-25T12:02:43.223Z,3.93
2022-08-25T12:05:22.160Z,3.40
2022-08-25T12:08:18.670Z,1.33
2022-08-25T12:11:11.456Z,5.67
2022-08-25T12:13:50.857Z,3.37
2022-08-25T12:16:38.553Z,2.83
2022-08-25T12:19:33.758Z,2.23
2022-08-25T12:22:06.943Z,1.77
2022-08-25T12:24:59.072Z,2.65
2022-08-25T12:27:46.554Z,4.70
2022-08-25T12:30:23.112Z,5.85
2022-08-25T12:33:11.986Z,4.20
2022-08-25T12:36:00.077Z,1.77
2022-08-25T12:38:50.856Z,4.75
2022-08-25T12:41:27.166Z,4.40
2022-08-25T12:44:13.345Z,2.53
2022-08-25T12:46:45.645Z,4.00
2022-08-25T12:49:32.319Z,3.55
2022-08-25T12:52:11.155Z,3.35
2022-08-25T12:54:56.168Z,4.73
2022-08-25T12:57:34.750Z,1.50
2022-08-25T13:00:18.216Z,1.70
2022-08-25T13:02:59.796Z,1.90
2022-08-25T13:05:47.933Z,2.70
2022-08-25T13:08:49.737Z,3.30
2022-08-25T13:11:30.243Z,2.90
2022-08-25T13:14:22.373Z,5.00
2022-08-25T13:16:57.369Z,2.90
2022-08-25T13:19:29.142Z,4.60
2022-08-25T13:22:02.707Z,2.10
2022-08-25T13:24:40.473Z,3.40
2022-08-25T13:27:13.585Z,3.80
2022-08-25T13:29:51.912Z,3.83
2022-08-25T13:32:38.757Z,2.27
2022-08-25T13:35:26.566Z,3.27
2022-08-25T13:37:56.023Z,3.60
2022-08-25T13:40:29.094Z,2.02
2022-08-25T13:43:07.674Z,2.13
2022-08-25T13:45:41.873Z,3.63
2022-08-25T13:48:23.048Z,3.20
2022-08-25T13:50:45.142Z,3.65
2022-08-25T13:53:30.479Z,5.33
2022-08-25T13:56:03.858Z,4.10
2022-08-25T13:58:45.082Z,1.50
2022-08-25T14:01:23.013Z,2.97
2022-08-25T14:03:48.599Z,6.83
2022-08-25T14:06:23.680Z,1.43
2022-08-25T14:09:05.317Z,4.80
2022-08-25T14:11:50.260Z,3.53
2022-08-25T14:14:30.705Z,1.93
2022-08-25T14:17:21.959Z,1.87
2022-08-25T14:19:40.875Z,2.23
2022-08-25T14:22:13.515Z,5.64
2022-08-25T14:24:43.818Z,4.97
2022-08-25T14:27:13.585Z,5.03
2022-08-25T14:29:43.055Z,4.95
2022-08-25T14:32:13.460Z,2.55
2022-08-25T14:34:43.394Z,4.67
2022-08-25T14:37:18.640Z,4.67
2022-08-25T14:39:49.067Z,3.02
2022-08-25T14:42:18.920Z,3.80
2022-08-25T14:44:48.760Z,1.83
2022-08-25T14:47:20.437Z,2.83
2022-08-25T14:49:50.907Z,2.60
2022-08-25T14:52:24.190Z,2.33
2022-08-25T14:54:54.287Z,2.83
2022-08-25T14:57:25.357Z,2.58
2022-08-25T14:59:55.378Z,3.00
2022-08-25T15:02:29.614Z,5.75
2022-08-25T15:05:00.702Z,2.43
2022-08-25T15:07:50.286Z,3.87
2022-08-25T15:10:21.638Z,2.26
2022-08-25T15:12:54.125Z,6.73
2022-08-25T15:15:24.727Z,2.02
2022-08-25T15:17:58.118Z,3.33
2022-08-25T15:20:26.854Z,5.35
2022-08-25T15:22:56.790Z,3.23
2022-08-25T15:25:26.627Z,1.80
2022-08-25T15:27:57.799Z,4.50
2022-08-25T15:30:31.264Z,3.63
2022-08-25T15:32:59.476Z,3.63
2022-08-25T15:35:29.401Z,3.70
2022-08-25T15:37:59.155Z,2.53
2022-08-25T15:40:29.515Z,4.72
2022-08-25T15:42:59.259Z,2.42
2022-08-25T15:45:29.083Z,3.53
2022-08-25T15:48:00.185Z,2.90
2022-08-25T15:50:30.098Z,4.85
2022-08-25T15:52:59.867Z,3.70
2022-08-25T15:55:30.085Z,2.87
2022-08-25T15:58:01.582Z,3.33
2022-08-25T16:00:32.033Z,2.00
2022-08-25T16:03:01.929Z,2.70
2022-08-25T16:05:32.569Z,4.03
2022-08-25T16:08:02.347Z,1.90
2022-08-25T16:10:38.371Z,3.13
2022-08-25T16:15:39.400Z,2.30
2022-08-25T16:18:10.898Z,2.56
2022-08-25T16:20:43.704Z,2.60
2022-08-25T16:23:15.761Z,3.55
2022-08-25T16:25:47.174Z,4.50
2022-08-25T16:28:18.272Z,1.66
2022-08-25T16:30:52.595Z,2.57
2022-08-25T16:33:21.577Z,2.60
2022-08-25T16:35:51.643Z,2.62
2022-08-25T16:38:21.109Z,2.20
2022-08-25T16:40:50.577Z,2.10
2022-08-25T16:43:21.514Z,3.13
2022-08-25T16:45:59.397Z,3.30
2022-08-25T16:48:31.269Z,3.40
2022-08-25T16:51:00.787Z,2.75
2022-08-25T16:53:48.823Z,3.63
2022-08-25T16:56:20.428Z,4.10
2022-08-25T16:58:52.250Z,3.63
2022-08-25T17:01:22.116Z,1.80
2022-08-25T17:03:56.785Z,7.73
2022-08-25T17:06:28.556Z,1.85
2022-08-25T17:08:58.328Z,4.97
2022-08-25T17:11:34.971Z,6.50
2022-08-25T17:14:10.873Z,3.73
2022-08-25T17:16:38.447Z,5.53
2022-08-25T17:19:12.624Z,1.73
2022-08-25T17:21:46.157Z,2.23
2022-08-25T17:24:17.007Z,6.45
2022-08-25T17:26:49.565Z,7.50
2022-08-25T17:29:20.188Z,8.90
2022-08-25T17:31:51.031Z,8.33
2022-08-25T17:34:23.085Z,3.33
2022-08-25T17:36:54.719Z,3.80
2022-08-25T17:39:25.215Z,1.70
2022-08-25T17:41:54.977Z,3.90
2022-08-25T17:44:24.729Z,2.63
2022-08-25T17:46:54.496Z,5.50
2022-08-25T17:49:25.384Z,3.43
2022-08-25T17:51:55.216Z,4.53
2022-08-25T17:54:24.984Z,4.23
2022-08-25T17:56:54.745Z,2.33
2022-08-25T17:59:24.347Z,3.45
2022-08-25T18:01:55.446Z,4.13
2022-08-25T18:04:27.274Z,3.70
2022-08-25T18:06:58.573Z,6.97
2022-08-25T18:09:28.670Z,8.58
2022-08-25T18:11:58.509Z,9.07
2022-08-25T18:14:28.068Z,4.05
2022-08-25T18:16:57.828Z,5.13
2022-08-25T18:19:27.903Z,4.87
2022-08-25T18:21:57.674Z,3.13
2022-08-25T18:24:27.615Z,8.33
2022-08-25T18:26:57.099Z,6.05
2022-08-25T18:29:28.401Z,7.00
2022-08-25T18:32:00.401Z,4.40
2022-08-25T18:34:30.320Z,4.70
2022-08-25T18:37:04.888Z,5.83
2022-08-25T18:39:53.864Z,3.65
2022-08-25T18:42:23.661Z,5.75
2022-08-25T18:44:53.451Z,2.57
2022-08-25T18:47:23.584Z,4.40
2022-08-25T18:49:54.740Z,5.97
2022-08-25T18:52:24.497Z,11.05
2022-08-25T18:54:54.740Z,7.05
2022-08-25T18:57:24.809Z,5.55
2022-08-25T18:59:54.581Z,2.73
2022-08-25T19:02:24.314Z,4.13
2022-08-25T19:04:54.356Z,4.47
2022-08-25T19:07:24.207Z,8.50
2022-08-25T19:09:54.130Z,10.83
2022-08-25T19:12:23.903Z,8.23
2022-08-25T19:14:53.670Z,5.47
2022-08-25T19:17:24.781Z,8.13
2022-08-25T19:19:54.353Z,4.80
2022-08-25T19:22:40.619Z,5.47
2022-08-25T19:24:55.563Z,7.00
2022-08-25T19:27:25.610Z,6.50
2022-08-25T19:29:55.717Z,8.10
2022-08-25T19:32:25.485Z,9.13
2022-08-25T19:34:56.219Z,5.37
2022-08-25T19:37:28.937Z,8.03
2022-08-25T19:39:58.778Z,4.93
2022-08-25T19:42:37.345Z,8.43
2022-08-25T19:45:00.118Z,4.33
2022-08-25T19:47:31.633Z,6.17
2022-08-25T19:50:01.236Z,4.35
2022-08-25T19:52:31.012Z,10.90
2022-08-25T19:55:02.419Z,5.13
2022-08-25T19:57:42.718Z,7.40
2022-08-25T20:00:05.646Z,9.77
2022-08-25T20:02:37.327Z,7.12
2022-08-25T20:05:07.489Z,9.03
2022-08-25T20:07:37.482Z,10.87
2022-08-25T20:10:14.178Z,9.83
2022-08-25T20:12:44.666Z,10.03
2022-08-25T20:15:16.905Z,11.13
2022-08-25T20:17:47.368Z,10.47
2022-08-25T20:20:21.549Z,12.53
2022-08-25T20:22:51.860Z,11.07
2022-08-25T20:25:27.930Z,17.40
2022-08-25T20:27:59.870Z,17.48
2022-08-25T20:30:30.914Z,16.02
2022-08-25T20:33:01.411Z,17.27
2022-08-25T20:35:31.334Z,21.37
2022-08-25T20:38:01.093Z,19.07
2022-08-25T20:40:32.328Z,18.73
2022-08-25T20:43:03.491Z,18.50
2022-08-25T20:45:33.110Z,19.57
2022-08-25T20:48:02.981Z,24.83
2022-08-25T20:50:34.517Z,22.30
2022-08-25T20:53:05.674Z,21.20
2022-08-25T20:55:41.687Z,23.03
2022-08-25T20:58:12.560Z,21.75
2022-08-25T21:00:45.563Z,23.80
2022-08-25T21:03:15.643Z,27.22
2022-08-25T21:05:45.692Z,27.93
2022-08-25T21:08:15.542Z,30.92
2022-08-25T21:10:45.588Z,28.57
2022-08-25T21:13:15.663Z,30.90
2022-08-25T21:15:47.098Z,31.43
2022-08-25T21:18:17.054Z,28.23
2022-08-25T21:20:47.010Z,29.00
2022-08-25T21:23:16.777Z,30.63
2022-08-25T21:25:46.263Z,30.17
2022-08-25T21:28:16.098Z,33.50
2022-08-25T21:30:47.407Z,32.17
2022-08-25T21:33:17.318Z,36.20
2022-08-25T21:35:48.365Z,32.17
2022-08-25T21:38:18.920Z,33.85
2022-08-25T21:40:48.699Z,34.47
2022-08-25T21:43:18.730Z,26.97
2022-08-25T21:45:48.521Z,30.77
2022-08-25T21:48:19.433Z,26.70
2022-08-25T21:50:49.380Z,27.33
2022-08-25T21:53:19.181Z,25.37
2022-08-25T21:55:48.962Z,29.17
2022-08-25T21:58:18.946Z,23.25
2022-08-25T22:00:48.743Z,21.90
2022-08-25T22:03:18.548Z,21.83
2022-08-25T22:05:48.907Z,22.43
2022-08-25T22:08:19.573Z,21.73
2022-08-25T22:10:49.360Z,20.67
2022-08-25T22:13:20.614Z,25.32
2022-08-25T22:15:52.073Z,20.52
2022-08-25T22:18:22.570Z,23.62
2022-08-25T22:20:53.205Z,22.67
2022-08-25T22:23:23.432Z,19.82
2022-08-25T22:25:55.217Z,23.10
2022-08-25T22:28:27.009Z,22.02
2022-08-25T22:31:03.321Z,22.37
2022-08-25T22:33:33.243Z,25.07
2022-08-25T22:36:03.184Z,25.60
2022-08-25T22:38:33.028Z,26.27
2022-08-25T22:41:03.094Z,22.60
2022-08-25T22:43:33.799Z,22.20
2022-08-25T22:46:05.325Z,24.07
2022-08-25T22:48:35.911Z,20.67
2022-08-25T22:51:12.569Z,22.07
2022-08-25T22:53:44.101Z,25.12
2022-08-25T22:56:17.081Z,24.10
2022-08-25T22:58:51.426Z,22.53
2022-08-25T23:01:21.106Z,24.37
2022-08-25T23:03:50.941Z,19.87
2022-08-25T23:06:24.657Z,23.30
2022-08-25T23:08:56.128Z,22.47
2022-08-25T23:11:26.443Z,18.97
2022-08-25T23:14:01.298Z,20.93
2022-08-25T23:16:31.615Z,20.20
2022-08-25T23:19:02.106Z,20.20
2022-08-25T23:21:49.837Z,23.30
2022-08-25T23:24:29.300Z,21.87
2022-08-25T23:26:51.662Z,19.67
2022-08-25T23:29:21.746Z,17.73
2022-08-25T23:31:51.587Z,16.63
2022-08-25T23:34:22.586Z,15.70
2022-08-25T23:36:52.956Z,21.17
2022-08-25T23:39:23.073Z,19.90
2022-08-25T23:41:53.501Z,17.90
2022-08-25T23:44:24.535Z,24.77
2022-08-25T23:46:56.142Z,15.70
2022-08-25T23:49:27.749Z,14.13
2022-08-25T23:51:57.530Z,17.97
2022-08-25T23:54:30.934Z,18.90
2022-08-25T23:56:59.911Z,17.87
2022-08-25T23:59:32.280Z,12.47
